sensor_id;sensor_type;location;lat;lon;timestamp;P1;durP1;ratioP1;P2;durP2;ratioP2
48327;SDS011;34136;51.022;7.082;2022-10-16T00:02:41;5.10;;;3.25;;
48327;SDS011;34136;51.022;7.082;2022-10-16T00:05:29;6.75;;;3.60;;
48327;SDS011;34136;51.022;7.082;2022-10-16T00:08:15;5.63;;;3.42;;
48327;SDS011;34136;51.022;7.082;2022-10-16T00:11:02;5.63;;;3.55;;
48327;SDS011;34136;51.022;7.082;2022-10-16T00:13:51;6.40;;;2.97;;
48327;SDS011;34136;51.022;7.082;2022-10-16T00:16:41;10.95;;;3.28;;
48327;SDS011;34136;51.022;7.082;2022-10-16T00:19:27;6.20;;;3.35;;
48327;SDS011;34136;51.022;7.082;2022-10-16T00:22:14;4.95;;;3.17;;
48327;SDS011;34136;51.022;7.082;2022-10-16T00:25:00;4.82;;;3.03;;
48327;SDS011;34136;51.022;7.082;2022-10-16T00:27:46;5.43;;;3.10;;
48327;SDS011;34136;51.022;7.082;2022-10-16T00:30:33;4.97;;;2.70;;
48327;SDS011;34136;51.022;7.082;2022-10-16T00:33:19;4.95;;;3.00;;
48327;SDS011;34136;51.022;7.082;2022-10-16T00:36:07;6.80;;;2.65;;
48327;SDS011;34136;51.022;7.082;2022-10-16T00:38:56;4.65;;;2.58;;
48327;SDS011;34136;51.022;7.082;2022-10-16T00:41:43;5.47;;;2.58;;
48327;SDS011;34136;51.022;7.082;2022-10-16T00:44:47;3.92;;;2.40;;
48327;SDS011;34136;51.022;7.082;2022-10-16T00:47:39;3.33;;;2.35;;
48327;SDS011;34136;51.022;7.082;2022-10-16T00:50:32;5.13;;;2.67;;
48327;SDS011;34136;51.022;7.082;2022-10-16T00:53:20;6.40;;;2.92;;
48327;SDS011;34136;51.022;7.082;2022-10-16T00:56:07;7.60;;;2.30;;
48327;SDS011;34136;51.022;7.082;2022-10-16T00:58:54;3.58;;;2.20;;
48327;SDS011;34136;51.022;7.082;2022-10-16T01:01:40;4.80;;;2.80;;
48327;SDS011;34136;51.022;7.082;2022-10-16T01:04:26;5.85;;;2.40;;
48327;SDS011;34136;51.022;7.082;2022-10-16T01:07:36;4.57;;;2.53;;
48327;SDS011;34136;51.022;7.082;2022-10-16T01:10:36;3.35;;;2.50;;
48327;SDS011;34136;51.022;7.082;2022-10-16T01:16:17;6.10;;;2.30;;
48327;SDS011;34136;51.022;7.082;2022-10-16T01:19:15;3.08;;;2.15;;
48327;SDS011;34136;51.022;7.082;2022-10-16T01:22:12;4.53;;;2.50;;
48327;SDS011;34136;51.022;7.082;2022-10-16T01:24:59;6.88;;;1.88;;
48327;SDS011;34136;51.022;7.082;2022-10-16T01:27:50;3.35;;;2.17;;
48327;SDS011;34136;51.022;7.082;2022-10-16T01:30:38;5.45;;;1.98;;
48327;SDS011;34136;51.022;7.082;2022-10-16T01:33:35;4.88;;;2.13;;
48327;SDS011;34136;51.022;7.082;2022-10-16T01:36:34;3.13;;;1.90;;
48327;SDS011;34136;51.022;7.082;2022-10-16T01:39:24;4.22;;;1.90;;
48327;SDS011;34136;51.022;7.082;2022-10-16T01:42:17;3.60;;;2.00;;
48327;SDS011;34136;51.022;7.082;2022-10-16T01:45:08;2.97;;;1.88;;
48327;SDS011;34136;51.022;7.082;2022-10-16T01:47:56;3.28;;;1.80;;
48327;SDS011;34136;51.022;7.082;2022-10-16T01:50:49;2.78;;;1.98;;
48327;SDS011;34136;51.022;7.082;2022-10-16T01:53:43;4.93;;;1.77;;
48327;SDS011;34136;51.022;7.082;2022-10-16T01:56:34;3.80;;;1.83;;
48327;SDS011;34136;51.022;7.082;2022-10-16T01:59:22;4.45;;;2.00;;
48327;SDS011;34136;51.022;7.082;2022-10-16T02:02:11;5.35;;;1.63;;
48327;SDS011;34136;51.022;7.082;2022-10-16T02:05:12;4.75;;;1.60;;
48327;SDS011;34136;51.022;7.082;2022-10-16T02:08:23;2.80;;;1.80;;
48327;SDS011;34136;51.022;7.082;2022-10-16T02:11:11;2.85;;;1.70;;
48327;SDS011;34136;51.022;7.082;2022-10-16T02:14:01;5.40;;;1.70;;
48327;SDS011;34136;51.022;7.082;2022-10-16T02:16:50;3.58;;;1.55;;
48327;SDS011;34136;51.022;7.082;2022-10-16T02:19:36;3.42;;;1.70;;
48327;SDS011;34136;51.022;7.082;2022-10-16T02:22:32;4.45;;;2.25;;
48327;SDS011;34136;51.022;7.082;2022-10-16T02:25:24;5.05;;;1.70;;
48327;SDS011;34136;51.022;7.082;2022-10-16T02:28:17;4.15;;;1.60;;
48327;SDS011;34136;51.022;7.082;2022-10-16T02:33:56;3.72;;;1.55;;
48327;SDS011;34136;51.022;7.082;2022-10-16T02:36:44;3.00;;;1.70;;
48327;SDS011;34136;51.022;7.082;2022-10-16T02:39:31;6.05;;;1.70;;
48327;SDS011;34136;51.022;7.082;2022-10-16T02:42:19;5.25;;;1.63;;
48327;SDS011;34136;51.022;7.082;2022-10-16T02:45:06;3.10;;;1.70;;
48327;SDS011;34136;51.022;7.082;2022-10-16T02:47:54;2.53;;;1.60;;
48327;SDS011;34136;51.022;7.082;2022-10-16T02:50:40;2.33;;;1.27;;
48327;SDS011;34136;51.022;7.082;2022-10-16T02:53:26;5.95;;;1.73;;
48327;SDS011;34136;51.022;7.082;2022-10-16T02:56:13;2.30;;;1.20;;
48327;SDS011;34136;51.022;7.082;2022-10-16T02:58:59;2.55;;;1.48;;
48327;SDS011;34136;51.022;7.082;2022-10-16T03:01:45;3.25;;;1.60;;
48327;SDS011;34136;51.022;7.082;2022-10-16T03:04:31;4.10;;;1.65;;
48327;SDS011;34136;51.022;7.082;2022-10-16T03:07:18;3.47;;;1.30;;
48327;SDS011;34136;51.022;7.082;2022-10-16T03:10:04;2.38;;;1.30;;
48327;SDS011;34136;51.022;7.082;2022-10-16T03:12:51;1.85;;;1.13;;
48327;SDS011;34136;51.022;7.082;2022-10-16T03:15:37;4.53;;;1.45;;
48327;SDS011;34136;51.022;7.082;2022-10-16T03:18:23;2.10;;;1.13;;
48327;SDS011;34136;51.022;7.082;2022-10-16T03:21:10;4.05;;;1.25;;
48327;SDS011;34136;51.022;7.082;2022-10-16T03:23:56;5.45;;;1.92;;
48327;SDS011;34136;51.022;7.082;2022-10-16T03:26:42;3.78;;;1.80;;
48327;SDS011;34136;51.022;7.082;2022-10-16T03:29:29;3.15;;;1.55;;
48327;SDS011;34136;51.022;7.082;2022-10-16T03:32:15;3.00;;;1.50;;
48327;SDS011;34136;51.022;7.082;2022-10-16T03:35:01;3.03;;;1.55;;
48327;SDS011;34136;51.022;7.082;2022-10-16T03:37:47;2.88;;;1.60;;
48327;SDS011;34136;51.022;7.082;2022-10-16T03:40:34;3.83;;;1.40;;
48327;SDS011;34136;51.022;7.082;2022-10-16T03:43:20;6.35;;;1.63;;
48327;SDS011;34136;51.022;7.082;2022-10-16T03:46:06;3.78;;;1.60;;
48327;SDS011;34136;51.022;7.082;2022-10-16T03:48:52;3.10;;;1.70;;
48327;SDS011;34136;51.022;7.082;2022-10-16T03:51:39;6.20;;;1.88;;
48327;SDS011;34136;51.022;7.082;2022-10-16T03:54:25;3.88;;;1.70;;
48327;SDS011;34136;51.022;7.082;2022-10-16T03:57:11;3.72;;;1.50;;
48327;SDS011;34136;51.022;7.082;2022-10-16T03:59:58;1.85;;;1.33;;
48327;SDS011;34136;51.022;7.082;2022-10-16T04:02:44;6.82;;;2.00;;
48327;SDS011;34136;51.022;7.082;2022-10-16T04:05:30;3.72;;;1.70;;
48327;SDS011;34136;51.022;7.082;2022-10-16T04:08:16;3.25;;;1.67;;
48327;SDS011;34136;51.022;7.082;2022-10-16T04:11:03;4.07;;;1.40;;
48327;SDS011;34136;51.022;7.082;2022-10-16T04:13:49;3.95;;;1.55;;
48327;SDS011;34136;51.022;7.082;2022-10-16T04:16:35;4.30;;;1.50;;
48327;SDS011;34136;51.022;7.082;2022-10-16T04:19:21;4.82;;;1.58;;
48327;SDS011;34136;51.022;7.082;2022-10-16T04:22:07;3.78;;;1.70;;
48327;SDS011;34136;51.022;7.082;2022-10-16T04:24:54;5.05;;;1.65;;
48327;SDS011;34136;51.022;7.082;2022-10-16T04:27:40;2.65;;;1.52;;
48327;SDS011;34136;51.022;7.082;2022-10-16T04:30:26;2.85;;;1.63;;
48327;SDS011;34136;51.022;7.082;2022-10-16T04:33:13;6.22;;;1.60;;
48327;SDS011;34136;51.022;7.082;2022-10-16T04:35:59;5.47;;;1.90;;
48327;SDS011;34136;51.022;7.082;2022-10-16T04:38:47;2.28;;;1.38;;
48327;SDS011;34136;51.022;7.082;2022-10-16T04:41:33;5.13;;;1.88;;
48327;SDS011;34136;51.022;7.082;2022-10-16T04:44:20;4.07;;;1.63;;
48327;SDS011;34136;51.022;7.082;2022-10-16T04:47:07;3.90;;;1.63;;
48327;SDS011;34136;51.022;7.082;2022-10-16T04:49:53;4.78;;;1.90;;
48327;SDS011;34136;51.022;7.082;2022-10-16T04:52:40;2.03;;;1.52;;
48327;SDS011;34136;51.022;7.082;2022-10-16T04:55:26;4.93;;;1.73;;
48327;SDS011;34136;51.022;7.082;2022-10-16T04:58:12;8.20;;;2.28;;
48327;SDS011;34136;51.022;7.082;2022-10-16T05:00:59;2.72;;;1.50;;
48327;SDS011;34136;51.022;7.082;2022-10-16T05:03:45;3.58;;;1.58;;
48327;SDS011;34136;51.022;7.082;2022-10-16T05:06:31;2.78;;;1.55;;
48327;SDS011;34136;51.022;7.082;2022-10-16T05:09:17;3.05;;;1.40;;
48327;SDS011;34136;51.022;7.082;2022-10-16T05:12:04;3.38;;;1.42;;
48327;SDS011;34136;51.022;7.082;2022-10-16T05:14:50;3.35;;;1.25;;
48327;SDS011;34136;51.022;7.082;2022-10-16T05:17:37;2.85;;;1.40;;
48327;SDS011;34136;51.022;7.082;2022-10-16T05:20:23;6.22;;;1.60;;
48327;SDS011;34136;51.022;7.082;2022-10-16T05:23:09;2.92;;;1.50;;
48327;SDS011;34136;51.022;7.082;2022-10-16T05:25:56;3.83;;;1.42;;
48327;SDS011;34136;51.022;7.082;2022-10-16T05:28:43;4.30;;;1.70;;
48327;SDS011;34136;51.022;7.082;2022-10-16T05:31:29;6.35;;;1.50;;
48327;SDS011;34136;51.022;7.082;2022-10-16T05:34:15;3.40;;;1.65;;
48327;SDS011;34136;51.022;7.082;2022-10-16T05:37:01;3.67;;;1.50;;
48327;SDS011;34136;51.022;7.082;2022-10-16T05:39:48;6.82;;;1.90;;
48327;SDS011;34136;51.022;7.082;2022-10-16T05:42:34;6.18;;;1.25;;
48327;SDS011;34136;51.022;7.082;2022-10-16T05:45:21;11.05;;;2.00;;
48327;SDS011;34136;51.022;7.082;2022-10-16T05:48:07;7.07;;;1.55;;
48327;SDS011;34136;51.022;7.082;2022-10-16T05:50:57;1.58;;;1.13;;
48327;SDS011;34136;51.022;7.082;2022-10-16T05:53:48;2.47;;;1.08;;
48327;SDS011;34136;51.022;7.082;2022-10-16T05:56:34;4.18;;;1.50;;
48327;SDS011;34136;51.022;7.082;2022-10-16T05:59:20;2.58;;;1.40;;
48327;SDS011;34136;51.022;7.082;2022-10-16T06:02:08;5.05;;;1.40;;
48327;SDS011;34136;51.022;7.082;2022-10-16T06:04:58;1.70;;;1.30;;
48327;SDS011;34136;51.022;7.082;2022-10-16T06:07:45;4.03;;;1.60;;
48327;SDS011;34136;51.022;7.082;2022-10-16T06:10:31;3.40;;;1.55;;
48327;SDS011;34136;51.022;7.082;2022-10-16T06:13:17;3.30;;;1.50;;
48327;SDS011;34136;51.022;7.082;2022-10-16T06:16:04;3.78;;;1.40;;
48327;SDS011;34136;51.022;7.082;2022-10-16T06:18:51;2.00;;;1.42;;
48327;SDS011;34136;51.022;7.082;2022-10-16T06:21:37;3.40;;;1.67;;
48327;SDS011;34136;51.022;7.082;2022-10-16T06:24:24;2.90;;;1.50;;
48327;SDS011;34136;51.022;7.082;2022-10-16T06:27:11;4.03;;;1.33;;
48327;SDS011;34136;51.022;7.082;2022-10-16T06:29:57;5.30;;;1.48;;
48327;SDS011;34136;51.022;7.082;2022-10-16T06:32:43;3.08;;;1.33;;
48327;SDS011;34136;51.022;7.082;2022-10-16T06:35:29;3.47;;;1.42;;
48327;SDS011;34136;51.022;7.082;2022-10-16T06:38:15;5.07;;;1.75;;
48327;SDS011;34136;51.022;7.082;2022-10-16T06:41:02;4.00;;;1.60;;
48327;SDS011;34136;51.022;7.082;2022-10-16T06:43:49;4.32;;;1.75;;
48327;SDS011;34136;51.022;7.082;2022-10-16T06:46:35;4.38;;;1.73;;
48327;SDS011;34136;51.022;7.082;2022-10-16T06:49:22;3.63;;;1.90;;
48327;SDS011;34136;51.022;7.082;2022-10-16T06:52:09;4.65;;;1.88;;
48327;SDS011;34136;51.022;7.082;2022-10-16T06:54:55;6.43;;;2.00;;
48327;SDS011;34136;51.022;7.082;2022-10-16T06:57:41;4.65;;;1.92;;
48327;SDS011;34136;51.022;7.082;2022-10-16T07:00:27;4.20;;;2.00;;
48327;SDS011;34136;51.022;7.082;2022-10-16T07:03:13;3.00;;;2.42;;
48327;SDS011;34136;51.022;7.082;2022-10-16T07:06:03;5.50;;;2.22;;
48327;SDS011;34136;51.022;7.082;2022-10-16T07:08:51;2.92;;;2.25;;
48327;SDS011;34136;51.022;7.082;2022-10-16T07:11:38;3.95;;;1.88;;
48327;SDS011;34136;51.022;7.082;2022-10-16T07:14:25;5.03;;;2.20;;
48327;SDS011;34136;51.022;7.082;2022-10-16T07:17:11;4.05;;;1.95;;
48327;SDS011;34136;51.022;7.082;2022-10-16T07:19:57;3.75;;;1.65;;
48327;SDS011;34136;51.022;7.082;2022-10-16T07:22:43;4.10;;;2.28;;
48327;SDS011;34136;51.022;7.082;2022-10-16T07:25:29;4.53;;;2.30;;
48327;SDS011;34136;51.022;7.082;2022-10-16T07:28:15;2.90;;;2.03;;
48327;SDS011;34136;51.022;7.082;2022-10-16T07:31:05;4.13;;;2.15;;
48327;SDS011;34136;51.022;7.082;2022-10-16T07:33:53;4.90;;;2.30;;
48327;SDS011;34136;51.022;7.082;2022-10-16T07:36:40;3.88;;;1.92;;
48327;SDS011;34136;51.022;7.082;2022-10-16T07:39:26;4.88;;;2.30;;
48327;SDS011;34136;51.022;7.082;2022-10-16T07:42:12;5.03;;;2.10;;
48327;SDS011;34136;51.022;7.082;2022-10-16T07:44:58;4.78;;;1.98;;
48327;SDS011;34136;51.022;7.082;2022-10-16T07:47:45;3.80;;;1.92;;
48327;SDS011;34136;51.022;7.082;2022-10-16T07:50:31;5.93;;;2.45;;
48327;SDS011;34136;51.022;7.082;2022-10-16T07:53:17;3.35;;;1.90;;
48327;SDS011;34136;51.022;7.082;2022-10-16T07:56:04;3.28;;;2.00;;
48327;SDS011;34136;51.022;7.082;2022-10-16T07:58:51;3.42;;;1.92;;
48327;SDS011;34136;51.022;7.082;2022-10-16T08:01:38;7.22;;;2.13;;
48327;SDS011;34136;51.022;7.082;2022-10-16T08:04:24;3.13;;;2.05;;
48327;SDS011;34136;51.022;7.082;2022-10-16T08:07:10;4.43;;;1.92;;
48327;SDS011;34136;51.022;7.082;2022-10-16T08:09:56;4.25;;;1.60;;
48327;SDS011;34136;51.022;7.082;2022-10-16T08:12:43;4.72;;;1.75;;
48327;SDS011;34136;51.022;7.082;2022-10-16T08:15:29;4.85;;;2.03;;
48327;SDS011;34136;51.022;7.082;2022-10-16T08:18:15;6.03;;;1.80;;
48327;SDS011;34136;51.022;7.082;2022-10-16T08:21:02;2.55;;;1.48;;
48327;SDS011;34136;51.022;7.082;2022-10-16T08:23:49;5.00;;;1.38;;
48327;SDS011;34136;51.022;7.082;2022-10-16T08:26:36;4.10;;;1.15;;
48327;SDS011;34136;51.022;7.082;2022-10-16T08:29:22;7.50;;;2.33;;
48327;SDS011;34136;51.022;7.082;2022-10-16T08:32:08;3.65;;;1.50;;
48327;SDS011;34136;51.022;7.082;2022-10-16T08:34:54;3.15;;;1.35;;
48327;SDS011;34136;51.022;7.082;2022-10-16T08:37:40;4.15;;;1.55;;
48327;SDS011;34136;51.022;7.082;2022-10-16T08:40:28;3.28;;;1.35;;
48327;SDS011;34136;51.022;7.082;2022-10-16T08:49:29;3.58;;;1.30;;
48327;SDS011;34136;51.022;7.082;2022-10-16T08:52:16;4.38;;;1.30;;
48327;SDS011;34136;51.022;7.082;2022-10-16T08:55:03;2.53;;;0.98;;
48327;SDS011;34136;51.022;7.082;2022-10-16T08:57:50;3.88;;;1.25;;
48327;SDS011;34136;51.022;7.082;2022-10-16T09:00:37;3.78;;;0.93;;
48327;SDS011;34136;51.022;7.082;2022-10-16T09:09:54;4.35;;;1.08;;
48327;SDS011;34136;51.022;7.082;2022-10-16T09:12:54;2.03;;;1.00;;
48327;SDS011;34136;51.022;7.082;2022-10-16T09:16:04;2.25;;;1.10;;
48327;SDS011;34136;51.022;7.082;2022-10-16T09:22:10;1.98;;;0.82;;
48327;SDS011;34136;51.022;7.082;2022-10-16T09:25:00;2.70;;;0.82;;
48327;SDS011;34136;51.022;7.082;2022-10-16T09:27:57;1.95;;;0.68;;
48327;SDS011;34136;51.022;7.082;2022-10-16T09:30:43;2.83;;;0.90;;
48327;SDS011;34136;51.022;7.082;2022-10-16T09:33:33;4.18;;;0.85;;
48327;SDS011;34136;51.022;7.082;2022-10-16T09:36:23;5.00;;;0.80;;
48327;SDS011;34136;51.022;7.082;2022-10-16T09:39:12;2.25;;;0.73;;
48327;SDS011;34136;51.022;7.082;2022-10-16T09:41:59;3.40;;;0.80;;
48327;SDS011;34136;51.022;7.082;2022-10-16T09:44:47;2.67;;;0.98;;
48327;SDS011;34136;51.022;7.082;2022-10-16T09:47:35;2.78;;;0.70;;
48327;SDS011;34136;51.022;7.082;2022-10-16T09:50:27;1.52;;;0.70;;
48327;SDS011;34136;51.022;7.082;2022-10-16T09:53:14;3.28;;;0.70;;
48327;SDS011;34136;51.022;7.082;2022-10-16T09:56:01;5.28;;;0.70;;
48327;SDS011;34136;51.022;7.082;2022-10-16T09:58:53;4.53;;;0.80;;
